createdAt,value
2019-05-22T00:00:48.593Z,21.50
2019-05-22T00:05:11.327Z,22.47
2019-05-22T00:09:28.544Z,22.40
2019-05-22T00:13:36.912Z,22.27
2019-05-22T00:17:41.501Z,19.83
2019-05-22T00:21:49.307Z,21.23
2019-05-22T00:25:54.844Z,23.03
2019-05-22T00:30:00.735Z,20.23
2019-05-22T00:34:06.298Z,21.10
2019-05-22T00:38:12.003Z,21.07
2019-05-22T00:42:18.256Z,21.20
2019-05-22T00:46:24.542Z,22.10
2019-05-22T00:51:00.862Z,22.87
2019-05-22T00:55:21.088Z,22.50
2019-05-22T00:59:29.559Z,24.70
2019-05-22T01:03:36.401Z,25.07
2019-05-22T01:07:42.641Z,20.53
2019-05-22T01:11:48.326Z,21.53
2019-05-22T01:15:52.868Z,22.37
2019-05-22T01:19:59.001Z,16.87
2019-05-22T01:24:06.829Z,21.90
2019-05-22T01:28:13.531Z,21.87
2019-05-22T01:32:24.641Z,21.17
2019-05-22T01:36:38.462Z,20.13
2019-05-22T01:40:53.696Z,21.70
2019-05-22T01:45:05.812Z,19.47
2019-05-22T01:49:08.561Z,20.57
2019-05-22T01:53:15.599Z,21.27
2019-05-22T01:57:20.768Z,20.73
2019-05-22T02:01:27.331Z,21.30
2019-05-22T02:05:33.602Z,17.87
2019-05-22T02:09:40.901Z,21.30
2019-05-22T02:13:52.060Z,21.03
2019-05-22T02:17:58.128Z,16.97
2019-05-22T02:22:04.473Z,18.63
2019-05-22T02:26:11.003Z,20.17
2019-05-22T02:30:18.771Z,17.53
2019-05-22T02:34:23.538Z,19.30
2019-05-22T02:38:30.207Z,18.17
2019-05-22T02:42:35.273Z,19.53
2019-05-22T02:46:40.013Z,19.03
2019-05-22T02:50:46.203Z,17.53
2019-05-22T02:54:51.068Z,14.73
2019-05-22T02:58:57.945Z,16.57
2019-05-22T03:03:04.149Z,18.07
2019-05-22T03:07:10.133Z,14.77
2019-05-22T03:11:18.272Z,16.53
2019-05-22T03:15:24.480Z,16.37
2019-05-22T03:19:45.428Z,17.20
2019-05-22T03:23:50.050Z,16.87
2019-05-22T03:27:54.760Z,17.57
2019-05-22T03:31:59.422Z,15.63
2019-05-22T03:36:12.228Z,15.30
2019-05-22T03:40:17.572Z,15.87
2019-05-22T03:44:23.901Z,15.73
2019-05-22T03:48:33.383Z,16.27
2019-05-22T03:52:38.496Z,16.63
2019-05-22T03:56:43.981Z,14.80
2019-05-22T04:00:51.882Z,16.77
2019-05-22T04:04:56.848Z,15.37
2019-05-22T04:09:07.924Z,15.13
2019-05-22T04:13:12.797Z,15.63
2019-05-22T04:17:18.870Z,16.30
2019-05-22T04:21:23.537Z,18.07
2019-05-22T04:25:28.201Z,14.27
2019-05-22T04:29:33.725Z,14.03
2019-05-22T04:33:38.813Z,14.93
2019-05-22T04:37:44.705Z,12.77
2019-05-22T04:41:49.811Z,14.27
2019-05-22T04:45:57.174Z,14.40
2019-05-22T04:50:07.449Z,14.90
2019-05-22T04:54:08.385Z,13.77
2019-05-22T04:58:15.406Z,13.77
2019-05-22T05:02:20.274Z,13.63
2019-05-22T05:06:27.161Z,13.63
2019-05-22T05:10:31.793Z,12.30
2019-05-22T05:14:36.769Z,13.13
2019-05-22T05:18:41.574Z,12.20
2019-05-22T05:22:47.225Z,12.87
2019-05-22T05:26:53.183Z,11.87
2019-05-22T05:30:57.892Z,10.60
2019-05-22T05:35:07.520Z,10.23
2019-05-22T05:39:45.150Z,11.53
2019-05-22T05:43:50.265Z,11.03
2019-05-22T05:47:56.162Z,12.10
2019-05-22T05:52:00.741Z,12.10
2019-05-22T05:56:14.816Z,12.07
2019-05-22T06:00:22.651Z,12.83
2019-05-22T06:04:47.237Z,13.27
2019-05-22T06:08:52.320Z,10.93
2019-05-22T06:12:57.416Z,12.03
2019-05-22T06:17:52.031Z,11.33
2019-05-22T06:22:00.175Z,11.03
2019-05-22T06:26:04.897Z,9.10
2019-05-22T06:30:13.348Z,9.73
2019-05-22T06:34:17.897Z,9.13
2019-05-22T06:39:08.437Z,9.77
2019-05-22T06:43:58.118Z,7.83
2019-05-22T06:48:02.983Z,10.50
2019-05-22T06:52:08.394Z,10.47
2019-05-22T06:56:12.943Z,10.93
2019-05-22T07:00:21.775Z,9.20
2019-05-22T07:04:27.493Z,9.53
2019-05-22T07:08:32.128Z,11.23
2019-05-22T07:12:37.286Z,9.90
2019-05-22T07:16:44.436Z,7.70
2019-05-22T07:20:49.875Z,6.97
2019-05-22T07:24:54.520Z,6.03
2019-05-22T07:29:01.704Z,7.83
2019-05-22T07:33:05.910Z,8.03
2019-05-22T07:37:20.945Z,7.40
2019-05-22T07:41:25.741Z,6.07
2019-05-22T07:45:32.548Z,6.23
2019-05-22T07:49:37.266Z,6.10
2019-05-22T07:53:43.031Z,5.40
2019-05-22T07:57:49.654Z,5.40
2019-05-22T08:01:55.346Z,5.00
2019-05-22T08:06:00.596Z,5.70
2019-05-22T08:10:06.296Z,5.03
2019-05-22T08:14:13.345Z,5.37
2019-05-22T08:18:18.485Z,5.00
2019-05-22T08:22:23.640Z,5.13
2019-05-22T08:26:31.058Z,5.40
2019-05-22T08:30:35.597Z,6.20
2019-05-22T08:34:42.042Z,6.00
2019-05-22T08:38:46.755Z,5.87
2019-05-22T08:42:51.827Z,4.97
2019-05-22T08:46:56.743Z,6.30
2019-05-22T08:51:03.439Z,5.50
2019-05-22T08:55:09.055Z,5.00
2019-05-22T08:59:19.579Z,6.00
2019-05-22T09:03:20.005Z,5.47
2019-05-22T09:07:25.455Z,6.13
2019-05-22T09:11:30.038Z,5.93
2019-05-22T09:15:35.146Z,7.33
2019-05-22T09:19:39.688Z,7.70
2019-05-22T09:23:44.624Z,7.47
2019-05-22T09:27:49.528Z,6.97
2019-05-22T09:31:54.085Z,8.60
2019-05-22T09:35:58.761Z,7.00
2019-05-22T09:40:03.734Z,7.63
2019-05-22T09:44:08.490Z,7.23
2019-05-22T09:48:13.695Z,6.90
2019-05-22T09:52:18.335Z,5.90
2019-05-22T09:56:22.989Z,5.40
2019-05-22T10:00:28.599Z,4.50
2019-05-22T10:04:33.295Z,5.90
2019-05-22T10:08:37.849Z,6.23
2019-05-22T10:12:42.616Z,5.63
2019-05-22T10:16:47.151Z,4.37
2019-05-22T10:20:52.236Z,4.90
2019-05-22T10:25:15.084Z,5.63
2019-05-22T10:29:11.337Z,5.23
2019-05-22T10:33:15.971Z,4.13
2019-05-22T10:37:20.526Z,5.27
2019-05-22T10:41:25.032Z,6.00
2019-05-22T10:45:29.914Z,4.60
2019-05-22T10:49:34.467Z,4.57
2019-05-22T10:53:39.971Z,5.20
2019-05-22T10:57:44.920Z,5.23
2019-05-22T11:01:49.667Z,3.77
2019-05-22T11:06:06.698Z,4.37
2019-05-22T11:10:00.762Z,4.33
2019-05-22T11:14:09.298Z,4.60
2019-05-22T11:18:12.206Z,4.57
2019-05-22T11:22:17.614Z,4.53
2019-05-22T11:26:22.456Z,4.73
2019-05-22T11:30:27.432Z,4.20
2019-05-22T11:34:32.066Z,3.90
2019-05-22T11:38:36.656Z,4.30
2019-05-22T11:42:41.701Z,4.57
2019-05-22T11:46:46.264Z,4.53
2019-05-22T11:50:51.316Z,4.60
2019-05-22T11:54:55.864Z,4.60
2019-05-22T11:59:00.434Z,5.10
2019-05-22T12:03:07.678Z,6.30
2019-05-22T12:07:12.299Z,4.37
2019-05-22T12:11:19.225Z,5.70
2019-05-22T12:15:25.249Z,5.58
2019-05-22T12:19:29.984Z,5.85
2019-05-22T12:25:51.004Z,6.12
2019-05-22T12:29:55.676Z,6.60
2019-05-22T12:34:00.943Z,5.85
2019-05-22T12:38:06.669Z,6.37
2019-05-22T12:42:13.586Z,6.33
2019-05-22T12:46:19.809Z,5.75
2019-05-22T12:50:28.036Z,4.60
2019-05-22T12:54:45.865Z,4.27
2019-05-22T12:58:40.414Z,4.23
2019-05-22T13:02:44.960Z,4.37
2019-05-22T13:06:49.700Z,4.20
2019-05-22T13:10:54.560Z,4.00
2019-05-22T13:15:09.050Z,4.00
2019-05-22T13:19:06.109Z,3.60
2019-05-22T13:23:13.903Z,3.27
2019-05-22T13:27:19.965Z,3.57
2019-05-22T13:31:25.092Z,3.63
2019-05-22T13:35:30.999Z,3.67
2019-05-22T13:39:36.101Z,3.83
2019-05-22T13:43:40.813Z,4.17
2019-05-22T13:47:45.393Z,3.43
2019-05-22T13:51:50.141Z,4.03
2019-05-22T13:55:55.079Z,3.23
2019-05-22T13:59:59.740Z,3.97
2019-05-22T14:04:04.639Z,4.63
2019-05-22T14:08:09.522Z,4.40
2019-05-22T14:12:14.389Z,4.20
2019-05-22T14:16:19.858Z,3.70
2019-05-22T14:20:25.424Z,4.33
2019-05-22T14:24:30.034Z,4.60
2019-05-22T14:28:35.385Z,4.03
2019-05-22T14:32:40.368Z,3.37
2019-05-22T14:36:44.912Z,3.70
2019-05-22T14:40:49.664Z,3.70
2019-05-22T14:44:54.229Z,3.27
2019-05-22T14:48:58.888Z,3.57
2019-05-22T14:53:04.144Z,3.37
2019-05-22T14:57:09.747Z,3.30
2019-05-22T15:01:14.208Z,2.97
2019-05-22T15:05:19.005Z,3.20
2019-05-22T15:09:23.569Z,2.30
2019-05-22T15:13:28.758Z,2.53
2019-05-22T15:17:33.454Z,2.80
2019-05-22T15:21:38.467Z,2.50
2019-05-22T15:25:43.610Z,2.40
2019-05-22T15:29:48.160Z,2.40
2019-05-22T15:33:53.443Z,3.00
2019-05-22T15:37:59.683Z,2.50
2019-05-22T15:42:05.796Z,2.63
2019-05-22T15:46:12.977Z,2.27
2019-05-22T15:50:22.500Z,2.10
2019-05-22T15:54:31.104Z,2.10
2019-05-22T15:58:39.224Z,2.13
2019-05-22T16:02:47.235Z,2.33
2019-05-22T16:06:52.468Z,2.40
2019-05-22T16:11:00.430Z,2.10
2019-05-22T16:15:08.132Z,1.97
2019-05-22T16:19:13.494Z,9.53
2019-05-22T16:23:21.336Z,2.33
2019-05-22T16:27:25.773Z,1.93
2019-05-22T16:31:31.547Z,2.30
2019-05-22T16:35:36.595Z,2.10
2019-05-22T16:39:41.647Z,2.17
2019-05-22T16:43:49.592Z,2.37
2019-05-22T16:47:53.757Z,2.07
2019-05-22T16:52:01.068Z,2.33
2019-05-22T16:56:06.409Z,2.10
2019-05-22T17:00:14.090Z,2.23
2019-05-22T17:04:18.893Z,2.47
2019-05-22T17:08:24.036Z,2.00
2019-05-22T17:12:29.712Z,2.03
2019-05-22T17:16:37.132Z,2.30
2019-05-22T17:20:43.085Z,2.37
2019-05-22T17:24:47.732Z,1.97
2019-05-22T17:28:52.271Z,2.00
2019-05-22T17:32:59.340Z,2.17
2019-05-22T17:37:10.624Z,2.20
2019-05-22T17:41:15.773Z,2.20
2019-05-22T17:45:23.753Z,2.03
2019-05-22T17:49:28.260Z,2.10
2019-05-22T17:53:32.938Z,2.33
2019-05-22T17:57:38.197Z,2.00
2019-05-22T18:01:42.931Z,1.80
2019-05-22T18:05:47.999Z,2.27
2019-05-22T18:09:52.666Z,2.77
2019-05-22T18:14:04.018Z,2.30
2019-05-22T18:18:09.668Z,2.13
2019-05-22T18:22:14.713Z,2.30
2019-05-22T18:26:19.368Z,2.10
2019-05-22T18:30:24.474Z,2.10
2019-05-22T18:34:29.081Z,2.10
2019-05-22T18:38:33.619Z,2.27
2019-05-22T18:42:38.170Z,2.03
2019-05-22T18:46:42.751Z,2.57
2019-05-22T18:50:47.300Z,2.20
2019-05-22T18:54:51.920Z,2.63
2019-05-22T18:58:56.659Z,2.40
2019-05-22T19:03:01.363Z,2.50
2019-05-22T19:07:06.026Z,2.03
2019-05-22T19:11:10.554Z,1.70
2019-05-22T19:15:15.914Z,2.23
2019-05-22T19:19:20.623Z,2.33
2019-05-22T19:23:25.361Z,2.53
2019-05-22T19:27:29.909Z,2.87
2019-05-22T19:31:34.500Z,2.33
2019-05-22T19:35:39.057Z,2.27
2019-05-22T19:39:43.810Z,2.50
2019-05-22T19:43:48.917Z,3.20
2019-05-22T19:47:57.035Z,2.40
2019-05-22T19:52:02.000Z,2.40
2019-05-22T19:56:06.765Z,2.53
2019-05-22T20:00:12.398Z,2.20
2019-05-22T20:04:17.424Z,2.60
2019-05-22T20:08:22.673Z,2.70
2019-05-22T20:12:28.286Z,2.40
2019-05-22T20:16:33.115Z,2.80
2019-05-22T20:20:38.018Z,2.60
2019-05-22T20:24:42.696Z,2.33
2019-05-22T20:28:47.790Z,2.70
2019-05-22T20:32:52.325Z,2.77
2019-05-22T20:36:57.289Z,2.90
2019-05-22T20:41:02.149Z,2.60
2019-05-22T20:45:09.372Z,2.40
2019-05-22T20:49:15.952Z,2.20
2019-05-22T20:53:21.978Z,2.70
2019-05-22T20:57:27.853Z,2.40
2019-05-22T21:01:34.942Z,2.70
2019-05-22T21:05:41.952Z,2.77
2019-05-22T21:09:46.605Z,2.63
2019-05-22T21:13:51.416Z,2.53
2019-05-22T21:17:57.352Z,2.60
2019-05-22T21:22:02.855Z,2.93
2019-05-22T21:26:08.753Z,2.60
2019-05-22T21:30:15.041Z,2.83
2019-05-22T21:34:20.312Z,2.90
2019-05-22T21:38:26.743Z,3.07
2019-05-22T21:42:31.833Z,2.77
2019-05-22T21:46:37.083Z,3.17
2019-05-22T21:50:41.957Z,2.50
2019-05-22T21:54:47.101Z,3.10
2019-05-22T21:58:51.991Z,3.87
2019-05-22T22:02:57.500Z,4.30
2019-05-22T22:07:02.801Z,4.03
2019-05-22T22:11:07.714Z,4.37
2019-05-22T22:15:13.214Z,4.87
2019-05-22T22:19:18.491Z,3.97
2019-05-22T22:23:23.073Z,3.90
2019-05-22T22:27:28.002Z,3.80
2019-05-22T22:31:34.298Z,4.20
2019-05-22T22:35:40.370Z,4.58
2019-05-22T22:39:51.078Z,4.58
2019-05-22T22:43:58.569Z,5.20
2019-05-22T22:48:04.109Z,4.50
2019-05-22T22:52:09.634Z,4.87
2019-05-22T22:56:16.971Z,5.20
2019-05-22T23:00:32.428Z,5.80
2019-05-22T23:04:37.519Z,6.40
2019-05-22T23:08:42.930Z,5.50
2019-05-22T23:12:47.842Z,4.70
2019-05-22T23:16:52.924Z,5.42
2019-05-22T23:20:55.826Z,5.05
2019-05-22T23:25:00.885Z,4.90
2019-05-22T23:29:07.096Z,5.90
2019-05-22T23:33:11.921Z,5.10
2019-05-22T23:37:17.775Z,5.83
2019-05-22T23:41:24.261Z,5.83
2019-05-22T23:45:29.590Z,5.07
2019-05-22T23:49:36.081Z,5.55
2019-05-22T23:53:42.459Z,5.55
2019-05-22T23:57:49.129Z,5.23
